CheckWX is a tool to help pilots better visualize weather data.  It is not intended as a substitute for an official pre-flight weather briefing.

01:55:22 UTC

GMMN METAR
Mohammed V International Airport
Casablanca, Morocco
Current

25 mins ago

GMMN 240130Z 00000KT 0600 0400 R35R/0450VP2000D FG BKN003 08/08 Q1026 NOSIG
Observed
Feb-24 @ 01:30 UTC
Visibility
595 meters
Flight Rules
LIFR
Conditions
Fog
Cloud Levels
  • Broken at 300' AGL
Temperature
C / 46°F
Dewpoint
C / 46°F
Humidity
100%
Altimeter
30.3" Hg
Pressure
1025.92 hPa
Previous

55 mins ago

GMMN 240100Z 10003KT 0500 0400 R35R/0500V0800U FG BKN003 09/09 Q1026 NOSIG
Observed
Feb-24 @ 01:00 UTC
Wind
  • 100° at 3 KTS
Visibility
499 meters
Flight Rules
LIFR
Conditions
Fog
Cloud Levels
  • Broken at 300' AGL
Temperature
C / 48°F
Dewpoint
C / 48°F
Humidity
100%
Altimeter
30.3" Hg
Pressure
1025.92 hPa
Previous

1 hour ago

GMMN 240030Z 12004KT 0300 R35R/0325V0600N FG BKN003 09/09 Q1026 NOSIG
Observed
Feb-24 @ 00:30 UTC
Wind
  • 120° at 4 KTS
Visibility
306 meters
Flight Rules
LIFR
Conditions
Fog
Cloud Levels
  • Broken at 300' AGL
Temperature
C / 48°F
Dewpoint
C / 48°F
Humidity
100%
Altimeter
30.3" Hg
Pressure
1025.92 hPa